createdAt,value
2019-06-20T00:01:49.001Z,21.58
2019-06-20T00:04:18.605Z,21.24
2019-06-20T00:06:48.310Z,21.48
2019-06-20T00:09:17.831Z,21.31
2019-06-20T00:11:47.479Z,21.32
2019-06-20T00:14:17.177Z,21.37
2019-06-20T00:16:46.793Z,21.37
2019-06-20T00:19:16.520Z,21.24
2019-06-20T00:21:46.166Z,21.39
2019-06-20T00:24:15.706Z,20.99
2019-06-20T00:26:45.233Z,21.27
2019-06-20T00:29:14.773Z,21.24
2019-06-20T00:31:44.691Z,20.88
2019-06-20T00:34:14.257Z,20.93
2019-06-20T00:36:43.846Z,20.91
2019-06-20T00:39:13.486Z,20.82
2019-06-20T00:41:43.445Z,20.82
2019-06-20T00:44:13.250Z,20.96
2019-06-20T00:46:43.043Z,21.06
2019-06-20T00:49:12.879Z,21.17
2019-06-20T00:51:42.452Z,21.05
2019-06-20T00:54:11.993Z,20.82
2019-06-20T00:56:41.588Z,20.90
2019-06-20T00:59:11.181Z,20.91
2019-06-20T01:01:41.049Z,20.91
2019-06-20T01:04:11.015Z,20.79
2019-06-20T01:06:40.552Z,20.72
2019-06-20T01:09:10.838Z,20.69
2019-06-20T01:11:40.454Z,20.40
2019-06-20T01:14:10.209Z,20.52
2019-06-20T01:16:39.851Z,20.42
2019-06-20T01:19:09.586Z,20.32
2019-06-20T01:21:39.234Z,20.57
2019-06-20T01:24:09.103Z,20.38
2019-06-20T01:26:39.492Z,20.38
2019-06-20T01:29:09.076Z,20.35
2019-06-20T01:31:38.640Z,20.31
2019-06-20T01:34:08.326Z,20.29
2019-06-20T01:36:38.005Z,20.13
2019-06-20T01:39:08.853Z,20.08
2019-06-20T01:41:38.803Z,20.14
2019-06-20T01:44:08.391Z,20.10
2019-06-20T01:46:38.065Z,20.12
2019-06-20T01:49:08.084Z,20.20
2019-06-20T01:51:37.671Z,20.38
2019-06-20T01:54:07.318Z,20.48
2019-06-20T01:56:36.894Z,20.12
2019-06-20T01:59:06.672Z,20.08
2019-06-20T02:01:36.332Z,20.18
2019-06-20T02:04:06.114Z,20.19
2019-06-20T02:06:36.560Z,20.03
2019-06-20T02:09:09.039Z,19.96
2019-06-20T02:11:40.007Z,19.91
2019-06-20T02:14:10.219Z,19.85
2019-06-20T02:16:39.883Z,19.65
2019-06-20T02:19:09.525Z,19.74
2019-06-20T02:21:39.150Z,19.76
2019-06-20T02:24:08.722Z,19.67
2019-06-20T02:26:38.492Z,19.68
2019-06-20T02:29:08.068Z,19.58
2019-06-20T02:31:38.040Z,19.58
2019-06-20T02:34:08.936Z,19.74
2019-06-20T02:36:38.461Z,19.65
2019-06-20T02:39:08.804Z,19.70
2019-06-20T02:41:38.469Z,19.80
2019-06-20T02:44:28.411Z,19.51
2019-06-20T02:46:39.488Z,19.54
2019-06-20T02:49:09.101Z,19.65
2019-06-20T02:51:39.075Z,19.60
2019-06-20T02:54:08.570Z,19.63
2019-06-20T02:56:38.715Z,19.75
2019-06-20T02:59:08.345Z,19.77
2019-06-20T03:01:37.984Z,19.80
2019-06-20T03:04:07.674Z,19.91
2019-06-20T03:06:37.264Z,19.96
2019-06-20T03:09:07.988Z,19.71
2019-06-20T03:11:37.630Z,19.62
2019-06-20T03:14:09.833Z,19.66
2019-06-20T03:16:39.309Z,19.47
2019-06-20T03:19:08.991Z,19.27
2019-06-20T03:21:39.005Z,19.53
2019-06-20T03:24:08.618Z,19.79
2019-06-20T03:26:38.258Z,19.74
2019-06-20T03:29:07.949Z,19.87
2019-06-20T03:31:37.585Z,20.07
2019-06-20T03:34:07.261Z,19.92
2019-06-20T03:36:36.851Z,20.04
2019-06-20T03:39:08.278Z,20.15
2019-06-20T03:41:37.995Z,20.18
2019-06-20T03:44:07.665Z,20.10
2019-06-20T03:46:37.213Z,20.07
2019-06-20T03:49:06.794Z,20.02
2019-06-20T03:51:36.381Z,20.27
2019-06-20T03:54:06.284Z,20.26
2019-06-20T03:56:35.920Z,20.23
2019-06-20T03:59:05.653Z,20.19
2019-06-20T04:01:35.167Z,20.17
2019-06-20T04:04:05.206Z,20.12
2019-06-20T04:06:35.794Z,20.17
2019-06-20T04:09:07.097Z,20.14
2019-06-20T04:11:36.639Z,20.42
2019-06-20T04:14:06.244Z,20.11
2019-06-20T04:16:35.802Z,20.12
2019-06-20T04:19:05.550Z,20.30
2019-06-20T04:21:35.060Z,20.55
2019-06-20T04:24:04.646Z,20.71
2019-06-20T04:26:35.667Z,20.79
2019-06-20T04:29:05.274Z,20.63
2019-06-20T04:31:34.817Z,20.87
2019-06-20T04:34:04.508Z,21.02
2019-06-20T04:36:34.067Z,20.83
2019-06-20T04:39:18.373Z,21.01
2019-06-20T04:41:36.330Z,21.15
2019-06-20T04:44:06.059Z,21.05
2019-06-20T04:46:52.716Z,20.82
2019-06-20T04:49:22.245Z,21.13
2019-06-20T04:51:51.792Z,21.03
2019-06-20T04:54:21.400Z,20.96
2019-06-20T04:56:50.971Z,21.28
2019-06-20T04:59:20.499Z,21.48
2019-06-20T05:01:50.228Z,21.65
2019-06-20T05:04:19.852Z,21.36
2019-06-20T05:06:54.124Z,21.50
2019-06-20T05:09:23.773Z,21.35
2019-06-20T05:11:53.289Z,21.25
2019-06-20T05:14:22.873Z,21.43
2019-06-20T05:16:52.369Z,21.57
2019-06-20T05:19:22.372Z,21.45
2019-06-20T05:21:52.023Z,21.55
2019-06-20T05:24:21.604Z,21.48
2019-06-20T05:26:51.276Z,21.29
2019-06-20T05:29:20.881Z,21.26
2019-06-20T05:31:50.415Z,21.32
2019-06-20T05:34:19.895Z,21.26
2019-06-20T05:36:49.909Z,21.78
2019-06-20T05:39:19.454Z,21.81
2019-06-20T05:41:48.959Z,22.33
2019-06-20T05:44:18.772Z,22.57
2019-06-20T05:46:48.304Z,22.31
2019-06-20T05:49:18.966Z,22.01
2019-06-20T05:51:48.642Z,21.69
2019-06-20T05:54:18.151Z,21.98
2019-06-20T05:56:47.739Z,22.02
2019-06-20T05:59:17.379Z,22.43
2019-06-20T06:01:47.069Z,22.45
2019-06-20T06:04:16.931Z,22.59
2019-06-20T06:06:47.574Z,23.18
2019-06-20T06:09:17.526Z,22.89
2019-06-20T06:11:47.239Z,22.48
2019-06-20T06:14:16.900Z,22.37
2019-06-20T06:16:46.443Z,22.23
2019-06-20T06:19:16.184Z,22.57
2019-06-20T06:21:45.731Z,22.76
2019-06-20T06:24:15.292Z,22.52
2019-06-20T06:26:44.930Z,22.48
2019-06-20T06:29:16.708Z,22.88
2019-06-20T06:31:47.197Z,23.23
2019-06-20T06:34:16.843Z,22.61
2019-06-20T06:36:46.453Z,22.45
2019-06-20T06:39:15.957Z,22.11
2019-06-20T06:41:45.643Z,22.27
2019-06-20T06:44:15.201Z,22.58
2019-06-20T06:46:53.197Z,23.05
2019-06-20T06:49:15.962Z,23.49
2019-06-20T06:51:45.884Z,23.43
2019-06-20T06:54:15.472Z,23.79
2019-06-20T06:56:45.107Z,23.38
2019-06-20T06:59:14.670Z,23.55
2019-06-20T07:01:44.802Z,23.10
2019-06-20T07:04:14.322Z,23.23
2019-06-20T07:06:43.938Z,23.42
2019-06-20T07:09:13.535Z,23.42
2019-06-20T07:11:43.062Z,23.74
2019-06-20T07:14:12.747Z,23.60
2019-06-20T07:16:42.421Z,23.89
2019-06-20T07:19:12.101Z,23.97
2019-06-20T07:21:41.721Z,24.14
2019-06-20T07:24:11.789Z,23.46
2019-06-20T07:26:41.308Z,23.41
2019-06-20T07:29:10.919Z,23.08
2019-06-20T07:31:40.464Z,23.16
2019-06-20T07:34:10.042Z,22.97
2019-06-20T07:36:40.059Z,22.83
2019-06-20T07:39:10.634Z,22.97
2019-06-20T07:41:40.267Z,22.69
2019-06-20T07:44:10.077Z,22.61
2019-06-20T07:46:39.580Z,22.43
2019-06-20T07:49:09.257Z,22.55
2019-06-20T07:51:38.967Z,22.66
2019-06-20T07:54:08.611Z,22.79
2019-06-20T07:56:38.208Z,22.69
2019-06-20T07:59:07.891Z,22.61
2019-06-20T08:01:37.511Z,22.57
2019-06-20T08:04:07.209Z,22.81
2019-06-20T08:06:36.864Z,22.98
2019-06-20T08:09:09.116Z,22.88
2019-06-20T08:11:38.781Z,23.04
2019-06-20T08:14:08.468Z,23.27
2019-06-20T08:16:38.058Z,22.92
2019-06-20T08:19:07.726Z,23.02
2019-06-20T08:21:37.965Z,23.10
2019-06-20T08:24:07.620Z,23.36
2019-06-20T08:26:37.210Z,23.24
2019-06-20T08:29:18.698Z,23.36
2019-06-20T08:31:38.262Z,23.08
2019-06-20T08:34:07.973Z,23.47
2019-06-20T08:36:37.610Z,23.58
2019-06-20T08:39:10.317Z,23.28
2019-06-20T08:41:40.021Z,23.07
2019-06-20T08:44:09.783Z,23.05
2019-06-20T08:46:39.418Z,23.55
2019-06-20T08:49:09.104Z,23.77
2019-06-20T08:51:39.217Z,23.85
2019-06-20T08:54:08.996Z,24.52
2019-06-20T08:56:38.576Z,24.42
2019-06-20T08:59:23.205Z,23.68
2019-06-20T09:01:39.677Z,23.77
2019-06-20T09:04:09.285Z,24.09
2019-06-20T09:06:39.565Z,24.59
2019-06-20T09:09:09.811Z,25.16
2019-06-20T09:11:39.342Z,25.20
2019-06-20T09:14:08.965Z,24.90
2019-06-20T09:16:38.472Z,24.32
2019-06-20T09:19:08.029Z,23.95
2019-06-20T09:21:37.588Z,24.25
2019-06-20T09:24:07.339Z,24.33
2019-06-20T09:26:36.951Z,24.22
2019-06-20T09:29:07.662Z,24.06
2019-06-20T09:31:37.198Z,24.23
2019-06-20T09:34:06.848Z,24.57
2019-06-20T09:36:36.478Z,24.87
2019-06-20T09:39:08.084Z,25.07
2019-06-20T09:41:37.641Z,25.34
2019-06-20T09:44:07.308Z,25.56
2019-06-20T09:46:36.879Z,25.53
2019-06-20T09:49:06.423Z,25.27
2019-06-20T09:51:39.162Z,25.29
2019-06-20T09:54:09.282Z,25.01
2019-06-20T09:56:38.811Z,25.21
2019-06-20T09:59:09.107Z,25.77
2019-06-20T10:01:38.727Z,26.61
2019-06-20T10:04:08.466Z,26.42
2019-06-20T10:06:43.446Z,26.40
2019-06-20T10:09:13.035Z,26.28
2019-06-20T10:11:42.639Z,26.40
2019-06-20T10:14:13.681Z,26.85
2019-06-20T10:16:47.202Z,26.88
2019-06-20T10:19:14.627Z,26.92
2019-06-20T10:21:46.746Z,26.97
2019-06-20T10:24:17.616Z,26.85
2019-06-20T10:26:48.033Z,27.09
2019-06-20T10:29:19.245Z,27.58
2019-06-20T10:31:49.049Z,27.81
2019-06-20T10:34:18.758Z,27.56
2019-06-20T10:36:48.520Z,27.67
2019-06-20T10:39:18.139Z,27.53
2019-06-20T10:41:48.504Z,27.89
2019-06-20T10:44:18.140Z,27.98
2019-06-20T10:46:49.140Z,28.47
2019-06-20T10:49:18.774Z,28.74
2019-06-20T10:51:49.556Z,28.40
2019-06-20T10:54:19.203Z,28.29
2019-06-20T10:56:48.929Z,28.36
2019-06-20T10:59:18.664Z,28.82
2019-06-20T11:01:48.431Z,29.33
2019-06-20T11:04:18.293Z,29.23
2019-06-20T11:06:49.834Z,29.24
2019-06-20T11:09:20.684Z,28.36
2019-06-20T11:11:50.255Z,28.24
2019-06-20T11:14:19.944Z,28.20
2019-06-20T11:16:49.549Z,27.57
2019-06-20T11:19:19.269Z,27.72
2019-06-20T11:21:48.923Z,27.90
2019-06-20T11:24:18.500Z,28.55
2019-06-20T11:26:48.184Z,28.86
2019-06-20T11:29:18.250Z,28.67
2019-06-20T11:31:49.497Z,28.77
2019-06-20T11:34:19.107Z,28.49
2019-06-20T11:36:48.730Z,29.01
2019-06-20T11:39:18.306Z,29.62
2019-06-20T11:41:48.537Z,29.77
2019-06-20T11:44:18.504Z,29.95
2019-06-20T11:46:48.110Z,29.51
2019-06-20T11:49:17.672Z,28.97
2019-06-20T11:51:47.385Z,28.44
2019-06-20T11:54:17.026Z,28.53
2019-06-20T11:56:47.089Z,28.60
2019-06-20T11:59:17.200Z,28.58
2019-06-20T12:01:47.229Z,28.67
2019-06-20T12:04:17.156Z,28.71
2019-06-20T12:06:47.128Z,28.59
2019-06-20T12:09:16.796Z,28.90
2019-06-20T12:11:46.760Z,29.28
2019-06-20T12:14:16.405Z,29.35
2019-06-20T12:16:46.434Z,29.25
2019-06-20T12:19:16.167Z,29.14
2019-06-20T12:21:46.912Z,29.17
2019-06-20T12:24:16.495Z,29.29
2019-06-20T12:26:46.879Z,29.67
2019-06-20T12:29:16.793Z,30.31
2019-06-20T12:31:46.532Z,30.37
2019-06-20T12:34:16.133Z,30.84
2019-06-20T12:36:46.618Z,30.36
2019-06-20T12:39:16.447Z,30.47
2019-06-20T12:41:46.021Z,30.24
2019-06-20T12:44:16.512Z,30.27
2019-06-20T12:46:47.067Z,30.74
2019-06-20T12:49:16.674Z,30.88
2019-06-20T12:51:47.027Z,30.63
2019-06-20T12:54:16.931Z,30.38
2019-06-20T12:56:46.431Z,30.44
2019-06-20T12:59:16.092Z,29.89
2019-06-20T13:01:47.776Z,30.25
2019-06-20T13:04:18.500Z,30.32
2019-06-20T13:06:49.478Z,30.62
2019-06-20T13:09:19.180Z,30.74
2019-06-20T13:11:49.276Z,30.82
2019-06-20T13:14:19.216Z,30.72
2019-06-20T13:16:50.190Z,30.54
2019-06-20T13:19:19.879Z,30.04
2019-06-20T13:21:49.958Z,29.16
2019-06-20T13:24:19.595Z,29.01
2019-06-20T13:26:50.691Z,29.00
2019-06-20T13:29:20.333Z,28.99
2019-06-20T13:32:02.064Z,28.57
2019-06-20T13:34:21.281Z,28.50
2019-06-20T13:36:51.142Z,28.83
2019-06-20T13:39:21.113Z,28.79
2019-06-20T13:41:50.711Z,29.24
2019-06-20T13:44:21.668Z,29.49
2019-06-20T13:46:51.754Z,29.76
2019-06-20T13:49:21.382Z,29.52
2019-06-20T13:51:51.026Z,29.60
2019-06-20T13:54:20.589Z,29.70
2019-06-20T13:56:50.153Z,29.67
2019-06-20T13:59:19.884Z,29.55
2019-06-20T14:01:49.476Z,29.24
2019-06-20T14:04:19.169Z,29.04
2019-06-20T14:06:49.726Z,29.42
2019-06-20T14:09:19.467Z,29.35
2019-06-20T14:11:49.057Z,29.20
2019-06-20T14:14:18.627Z,29.37
2019-06-20T14:16:48.375Z,29.31
2019-06-20T14:19:17.918Z,29.28
2019-06-20T14:21:47.873Z,29.70
2019-06-20T14:24:17.420Z,29.90
2019-06-20T14:26:48.208Z,29.70
2019-06-20T14:29:17.960Z,29.65
2019-06-20T14:31:47.537Z,29.98
2019-06-20T14:34:17.629Z,30.00
2019-06-20T14:36:49.154Z,30.01
2019-06-20T14:39:18.483Z,29.74
2019-06-20T14:41:48.669Z,29.55
2019-06-20T14:44:18.604Z,29.67
2019-06-20T14:46:48.105Z,29.13
2019-06-20T14:49:17.690Z,28.72
2019-06-20T14:51:48.507Z,29.03
2019-06-20T14:54:19.773Z,29.22
2019-06-20T14:56:49.804Z,29.42
2019-06-20T14:59:19.867Z,29.93
2019-06-20T15:01:50.616Z,29.31
2019-06-20T15:04:20.250Z,29.69
2019-06-20T15:06:50.338Z,29.80
2019-06-20T15:09:20.276Z,29.76
2019-06-20T15:11:51.253Z,29.32
2019-06-20T15:14:21.051Z,29.43
2019-06-20T15:16:51.259Z,29.49
2019-06-20T15:19:21.231Z,29.35
2019-06-20T15:21:52.103Z,29.34
2019-06-20T15:24:21.702Z,29.38
2019-06-20T15:26:52.454Z,29.23
2019-06-20T15:29:22.735Z,29.11
2019-06-20T15:31:52.640Z,29.16
2019-06-20T15:34:22.345Z,29.22
2019-06-20T15:36:53.330Z,29.21
2019-06-20T15:39:23.252Z,28.92
2019-06-20T15:41:54.077Z,28.83
2019-06-20T15:44:24.105Z,28.74
2019-06-20T15:46:53.614Z,28.50
2019-06-20T15:49:23.146Z,28.51
2019-06-20T15:51:52.737Z,28.48
2019-06-20T15:54:24.515Z,28.35
2019-06-20T15:56:53.510Z,28.51
2019-06-20T15:59:23.221Z,28.79
2019-06-20T16:01:53.564Z,28.98
2019-06-20T16:04:23.070Z,28.73
2019-06-20T16:06:53.837Z,28.98
2019-06-20T16:09:23.410Z,29.18
2019-06-20T16:11:52.914Z,29.47
2019-06-20T16:14:22.457Z,29.69
2019-06-20T16:16:52.013Z,29.61
2019-06-20T16:19:21.627Z,29.74
2019-06-20T16:21:51.170Z,29.71
2019-06-20T16:24:20.779Z,28.90
2019-06-20T16:26:53.729Z,28.57
2019-06-20T16:29:23.831Z,28.63
2019-06-20T16:31:53.341Z,28.53
2019-06-20T16:34:23.005Z,28.25
2019-06-20T16:36:53.020Z,28.27
2019-06-20T16:39:22.633Z,28.36
2019-06-20T16:41:52.260Z,28.43
2019-06-20T16:44:21.995Z,28.41
2019-06-20T16:46:51.597Z,28.42
2019-06-20T16:49:21.557Z,28.12
2019-06-20T16:51:51.623Z,27.67
2019-06-20T16:54:21.115Z,27.03
2019-06-20T16:56:50.731Z,26.42
2019-06-20T16:59:20.425Z,26.40
2019-06-20T17:01:50.028Z,26.17
2019-06-20T17:04:19.547Z,26.16
2019-06-20T17:06:49.095Z,26.34
2019-06-20T17:09:18.675Z,25.97
2019-06-20T17:11:48.237Z,26.11
2019-06-20T17:14:17.972Z,26.16
2019-06-20T17:16:47.612Z,26.32
2019-06-20T17:19:17.256Z,26.12
2019-06-20T17:21:46.847Z,25.91
2019-06-20T17:24:16.415Z,25.63
2019-06-20T17:26:46.004Z,25.44
2019-06-20T17:29:15.655Z,25.21
2019-06-20T17:31:45.325Z,25.31
2019-06-20T17:34:15.004Z,25.31
2019-06-20T17:36:44.977Z,25.48
2019-06-20T17:39:14.628Z,25.56
2019-06-20T17:41:54.886Z,25.47
2019-06-20T17:44:15.448Z,25.61
2019-06-20T17:46:45.063Z,25.52
2019-06-20T17:49:14.669Z,25.67
2019-06-20T17:51:44.309Z,25.72
2019-06-20T17:54:13.837Z,25.62
2019-06-20T17:56:43.477Z,25.70
2019-06-20T17:59:13.260Z,25.43
2019-06-20T18:01:42.781Z,25.85
2019-06-20T18:04:13.955Z,26.06
2019-06-20T18:06:43.795Z,26.01
2019-06-20T18:09:13.398Z,26.20
2019-06-20T18:11:42.973Z,25.93
2019-06-20T18:14:12.915Z,26.04
2019-06-20T18:16:42.433Z,25.61
2019-06-20T18:19:12.059Z,25.32
2019-06-20T18:21:41.797Z,25.71
2019-06-20T18:24:11.396Z,25.60
2019-06-20T18:26:41.003Z,25.52
2019-06-20T18:29:10.623Z,25.72
2019-06-20T18:31:42.344Z,25.66
2019-06-20T18:34:11.472Z,25.68
2019-06-20T18:36:43.426Z,25.75
2019-06-20T18:39:12.699Z,25.63
2019-06-20T18:41:42.207Z,25.23
2019-06-20T18:44:12.533Z,25.10
2019-06-20T18:46:42.143Z,25.15
2019-06-20T18:49:11.775Z,25.29
2019-06-20T18:51:41.537Z,25.32
2019-06-20T18:54:11.134Z,25.35
2019-06-20T18:56:40.706Z,24.95
2019-06-20T18:59:10.279Z,24.95
2019-06-20T19:01:39.953Z,25.15
2019-06-20T19:04:09.715Z,24.91
2019-06-20T19:06:39.385Z,25.05
2019-06-20T19:09:10.488Z,24.97
2019-06-20T19:11:40.280Z,24.80
2019-06-20T19:14:12.586Z,24.92
2019-06-20T19:16:41.351Z,24.96
2019-06-20T19:19:10.870Z,24.88
2019-06-20T19:21:40.768Z,24.93
2019-06-20T19:24:10.288Z,24.78
2019-06-20T19:26:40.168Z,24.74
2019-06-20T19:29:09.888Z,24.76
2019-06-20T19:31:39.598Z,24.70
2019-06-20T19:34:09.286Z,24.73
2019-06-20T19:36:38.818Z,24.50
2019-06-20T19:39:09.075Z,24.51
2019-06-20T19:41:38.596Z,24.32
2019-06-20T19:44:08.618Z,24.12
2019-06-20T19:46:38.207Z,24.09
2019-06-20T19:49:07.947Z,24.05
2019-06-20T19:51:37.623Z,24.00
2019-06-20T19:54:07.740Z,23.98
2019-06-20T19:56:37.424Z,24.00
2019-06-20T19:59:07.028Z,23.77
2019-06-20T20:01:36.913Z,23.60
2019-06-20T20:04:06.601Z,23.63
2019-06-20T20:06:36.418Z,23.76
2019-06-20T20:09:09.205Z,23.61
2019-06-20T20:11:38.848Z,23.64
2019-06-20T20:14:11.413Z,23.56
2019-06-20T20:16:40.759Z,23.56
2019-06-20T20:19:10.453Z,23.62
2019-06-20T20:21:40.728Z,23.71
2019-06-20T20:24:10.333Z,23.70
2019-06-20T20:26:40.006Z,23.66
2019-06-20T20:29:09.772Z,23.51
2019-06-20T20:31:39.374Z,23.64
2019-06-20T20:34:11.823Z,23.74
2019-06-20T20:36:41.307Z,23.64
2019-06-20T20:39:10.962Z,23.50
2019-06-20T20:41:40.654Z,23.35
2019-06-20T20:44:10.238Z,23.43
2019-06-20T20:46:39.946Z,23.53
2019-06-20T20:49:09.549Z,23.64
2019-06-20T20:51:39.154Z,23.64
2019-06-20T20:54:08.787Z,23.76
2019-06-20T20:56:38.393Z,23.80
2019-06-20T20:59:08.082Z,23.86
2019-06-20T21:01:37.591Z,23.85
2019-06-20T21:04:07.195Z,23.80
2019-06-20T21:06:37.308Z,23.76
2019-06-20T21:09:08.581Z,23.69
2019-06-20T21:11:38.166Z,23.76
2019-06-20T21:14:07.871Z,23.75
2019-06-20T21:16:37.459Z,23.53
2019-06-20T21:19:07.395Z,23.22
2019-06-20T21:21:37.377Z,23.08
2019-06-20T21:24:06.980Z,23.05
2019-06-20T21:26:48.793Z,22.94
2019-06-20T21:29:08.127Z,22.85
2019-06-20T21:31:37.832Z,22.51
2019-06-20T21:34:07.348Z,22.17
2019-06-20T21:36:36.883Z,21.62
2019-06-20T21:39:08.931Z,21.49
2019-06-20T21:41:38.446Z,21.33
2019-06-20T21:44:08.439Z,21.37
2019-06-20T21:46:37.993Z,21.48
2019-06-20T21:49:07.642Z,21.42
2019-06-20T21:51:37.334Z,21.34
2019-06-20T21:54:06.995Z,21.22
2019-06-20T21:56:36.504Z,21.15
2019-06-20T21:59:06.605Z,20.84
2019-06-20T22:01:37.166Z,20.99
2019-06-20T22:04:06.820Z,21.13
2019-06-20T22:06:36.532Z,21.31
2019-06-20T22:09:08.817Z,21.50
2019-06-20T22:11:38.404Z,21.20
2019-06-20T22:14:08.020Z,21.13
2019-06-20T22:16:37.675Z,21.21
2019-06-20T22:19:07.747Z,21.15
2019-06-20T22:21:37.791Z,20.93
2019-06-20T22:24:07.493Z,21.17
2019-06-20T22:26:37.020Z,21.08
2019-06-20T22:29:06.618Z,21.12
2019-06-20T22:31:36.226Z,21.07
2019-06-20T22:34:05.892Z,21.10
2019-06-20T22:36:40.321Z,21.16
2019-06-20T22:39:09.474Z,21.17
2019-06-20T22:41:39.026Z,21.00
2019-06-20T22:44:08.867Z,21.15
2019-06-20T22:46:38.375Z,21.17
2019-06-20T22:49:07.995Z,21.23
2019-06-20T22:51:37.591Z,20.99
2019-06-20T22:54:07.491Z,21.22
2019-06-20T22:56:37.005Z,21.19
2019-06-20T22:59:06.613Z,21.08
2019-06-20T23:01:36.132Z,20.90
2019-06-20T23:04:05.715Z,21.21
2019-06-20T23:06:37.069Z,21.18
2019-06-20T23:09:08.460Z,21.25
2019-06-20T23:11:38.042Z,21.23
2019-06-20T23:14:07.692Z,21.30
2019-06-20T23:16:37.232Z,20.76
2019-06-20T23:19:06.982Z,20.68
2019-06-20T23:21:36.694Z,20.62
2019-06-20T23:24:06.354Z,20.70
2019-06-20T23:26:35.952Z,20.90
2019-06-20T23:29:24.149Z,21.06
2019-06-20T23:31:56.523Z,21.01
2019-06-20T23:34:26.198Z,21.01
2019-06-20T23:37:11.415Z,20.95
2019-06-20T23:39:28.443Z,20.89
2019-06-20T23:41:58.091Z,20.90
2019-06-20T23:44:30.891Z,20.62
2019-06-20T23:47:00.441Z,20.70
2019-06-20T23:49:29.949Z,20.88
2019-06-20T23:52:01.316Z,20.88
2019-06-20T23:54:30.858Z,20.84
2019-06-20T23:57:00.367Z,20.98
2019-06-20T23:59:29.901Z,20.77
